createdAt,value
2023-04-02T00:00:20.761Z,99981.69
2023-04-02T00:03:01.891Z,99985.16
2023-04-02T00:05:55.784Z,99986.84
2023-04-02T00:08:27.021Z,99993.88
2023-04-02T00:10:58.916Z,99992.97
2023-04-02T00:13:33.996Z,99998.09
2023-04-02T00:16:04.299Z,100005.94
2023-04-02T00:18:34.218Z,100014.53
2023-04-02T00:21:11.523Z,100010.28
2023-04-02T00:23:41.903Z,100014.53
2023-04-02T00:26:24.880Z,100025.00
2023-04-02T00:28:54.069Z,100028.47
2023-04-02T00:31:22.258Z,100031.16
2023-04-02T00:33:50.449Z,100034.63
2023-04-02T00:36:21.860Z,100044.13
2023-04-02T00:38:50.387Z,100051.84
2023-04-02T00:41:27.125Z,100045.81
2023-04-02T00:43:57.740Z,100051.13
2023-04-02T00:46:32.031Z,100052.84
2023-04-02T00:49:07.998Z,100058.81
2023-04-02T00:51:39.849Z,100056.22
2023-04-02T00:54:15.641Z,100052.91
2023-04-02T00:56:47.288Z,100060.72
2023-04-02T00:59:23.927Z,100060.72
2023-04-02T01:01:55.247Z,100070.25
2023-04-02T01:04:31.466Z,100075.50
2023-04-02T01:06:59.713Z,100075.47
2023-04-02T01:09:42.952Z,100074.66
2023-04-02T01:12:30.871Z,100081.59
2023-04-02T01:15:09.712Z,100082.41
2023-04-02T01:17:58.363Z,100074.69
2023-04-02T01:20:54.180Z,100086.00
2023-04-02T01:23:29.434Z,100096.38
2023-04-02T01:26:05.882Z,100093.72
2023-04-02T01:28:50.187Z,100112.94
2023-04-02T01:31:18.870Z,100109.53
2023-04-02T01:33:46.736Z,100108.72
2023-04-02T01:36:22.451Z,100119.97
2023-04-02T01:39:02.186Z,100120.81
2023-04-02T01:41:38.278Z,100121.63
2023-04-02T01:44:10.236Z,100132.06
2023-04-02T01:46:41.215Z,100134.59
2023-04-02T01:49:14.889Z,100139.88
2023-04-02T01:51:44.883Z,100137.22
2023-04-02T01:54:17.091Z,100138.06
2023-04-02T01:56:47.181Z,100150.28
2023-04-02T01:59:18.779Z,100154.63
2023-04-02T02:01:52.896Z,100152.03
2023-04-02T02:04:21.281Z,100166.81
2023-04-02T02:06:50.353Z,100165.06
2023-04-02T02:09:23.995Z,100168.47
2023-04-02T02:11:52.088Z,100171.09
2023-04-02T02:14:24.725Z,100178.91
2023-04-02T02:16:56.679Z,100181.44
2023-04-02T02:19:29.728Z,100185.75
2023-04-02T02:22:05.345Z,100193.56
2023-04-02T02:24:35.732Z,100202.31
2023-04-02T02:27:19.589Z,100204.22
2023-04-02T02:29:52.629Z,100215.56
2023-04-02T02:32:23.359Z,100215.66
2023-04-02T02:34:59.609Z,100221.75
2023-04-02T02:37:30.703Z,100230.44
2023-04-02T02:40:01.721Z,100228.81
2023-04-02T02:42:35.125Z,100238.38
2023-04-02T02:45:08.029Z,100241.81
2023-04-02T02:47:39.159Z,100247.25
2023-04-02T02:50:18.337Z,100256.94
2023-04-02T02:52:51.618Z,100263.88
2023-04-02T02:55:23.327Z,100269.25
2023-04-02T02:58:19.207Z,100258.88
2023-04-02T03:01:00.620Z,100283.28
2023-04-02T03:03:34.290Z,100276.34
2023-04-02T03:06:08.465Z,100282.50
2023-04-02T03:08:44.471Z,100286.84
2023-04-02T03:11:24.132Z,100294.66
2023-04-02T03:13:57.048Z,100291.09
2023-04-02T03:16:32.389Z,100300.81
2023-04-02T03:19:03.593Z,100294.75
2023-04-02T03:21:39.028Z,100308.66
2023-04-02T03:24:14.565Z,100319.88
2023-04-02T03:26:47.963Z,100319.94
2023-04-02T03:29:19.464Z,100319.13
2023-04-02T03:31:54.924Z,100324.25
2023-04-02T03:34:28.024Z,100327.81
2023-04-02T03:37:00.670Z,100332.06
2023-04-02T03:39:37.426Z,100336.44
2023-04-02T03:42:10.450Z,100335.66
2023-04-02T03:44:46.429Z,100345.22
2023-04-02T03:47:20.255Z,100340.94
2023-04-02T03:49:54.934Z,100351.34
2023-04-02T03:52:27.169Z,100355.72
2023-04-02T03:54:58.454Z,100363.56
2023-04-02T03:57:32.827Z,100369.63
2023-04-02T04:00:06.491Z,100372.25
2023-04-02T04:02:46.573Z,100374.84
2023-04-02T04:05:28.999Z,100387.03
2023-04-02T04:08:04.564Z,100394.84
2023-04-02T04:10:33.704Z,100398.38
2023-04-02T04:13:06.934Z,100400.16
2023-04-02T04:15:38.250Z,100401.91
2023-04-02T04:18:19.219Z,100420.13
2023-04-02T04:20:56.271Z,100421.94
2023-04-02T04:23:31.485Z,100430.59
2023-04-02T04:26:09.463Z,100435.84
2023-04-02T04:28:47.973Z,100435.88
2023-04-02T04:31:25.962Z,100435.91
2023-04-02T04:34:04.963Z,100452.44
2023-04-02T04:36:53.871Z,100450.69
2023-04-02T04:39:31.711Z,100454.22
2023-04-02T04:42:02.396Z,100467.19
2023-04-02T04:44:43.635Z,100484.53
2023-04-02T04:47:18.499Z,100485.47
2023-04-02T04:49:53.552Z,100488.13
2023-04-02T04:52:25.074Z,100491.56
2023-04-02T04:54:53.748Z,100493.28
2023-04-02T04:57:32.725Z,100510.63
2023-04-02T05:00:09.309Z,100508.91
2023-04-02T05:02:46.279Z,100521.91
2023-04-02T05:05:22.844Z,100529.81
2023-04-02T05:07:59.046Z,100532.38
2023-04-02T05:10:35.940Z,100537.59
2023-04-02T05:13:08.725Z,100544.50
2023-04-02T05:15:42.168Z,100555.78
2023-04-02T05:18:24.710Z,100553.25
2023-04-02T05:21:00.237Z,100558.44
2023-04-02T05:23:31.639Z,100560.22
2023-04-02T05:26:07.345Z,100567.16
2023-04-02T05:28:42.347Z,100577.56
2023-04-02T05:31:17.468Z,100584.47
2023-04-02T05:33:48.328Z,100587.09
2023-04-02T05:36:23.793Z,100596.66
2023-04-02T05:38:57.825Z,100602.69
2023-04-02T05:41:38.281Z,100612.19
2023-04-02T05:44:11.559Z,100608.75
2023-04-02T05:46:47.384Z,100624.44
2023-04-02T05:49:23.497Z,100624.41
2023-04-02T05:51:59.409Z,100632.16
2023-04-02T05:54:33.326Z,100642.59
2023-04-02T05:57:04.847Z,100644.31
2023-04-02T05:59:39.149Z,100648.63
2023-04-02T06:02:18.458Z,100655.56
2023-04-02T06:04:55.565Z,100664.25
2023-04-02T06:07:34.169Z,100666.88
2023-04-02T06:10:06.445Z,100680.72
2023-04-02T06:12:43.600Z,100679.88
2023-04-02T06:15:15.461Z,100691.09
2023-04-02T06:17:48.403Z,100697.19
2023-04-02T06:20:18.881Z,100701.53
2023-04-02T06:22:50.336Z,100710.19
2023-04-02T06:25:24.448Z,100714.50
2023-04-02T06:27:56.742Z,100720.59
2023-04-02T06:30:29.344Z,100723.19
2023-04-02T06:32:57.819Z,100734.47
2023-04-02T06:35:27.076Z,100737.91
2023-04-02T06:38:06.674Z,100742.25
2023-04-02T06:40:42.689Z,100747.47
2023-04-02T06:43:26.305Z,100748.34
2023-04-02T06:46:21.752Z,100756.13
2023-04-02T06:49:10.383Z,100765.63
2023-04-02T06:51:41.924Z,100771.72
2023-04-02T06:54:16.145Z,100782.97
2023-04-02T06:56:47.800Z,100784.72
2023-04-02T06:59:21.632Z,100791.63
2023-04-02T07:01:54.370Z,100797.69
2023-04-02T07:04:23.244Z,100799.44
2023-04-02T07:06:53.552Z,100804.63
2023-04-02T07:09:25.886Z,100810.66
2023-04-02T07:11:56.471Z,100829.72
2023-04-02T07:14:24.319Z,100828.88
2023-04-02T07:16:52.598Z,100828.00
2023-04-02T07:19:22.687Z,100844.47
2023-04-02T07:21:54.917Z,100847.91
2023-04-02T07:24:26.140Z,100842.75
2023-04-02T07:26:54.041Z,100860.94
2023-04-02T07:29:21.878Z,100865.25
2023-04-02T07:31:49.843Z,100868.72
2023-04-02T07:34:17.696Z,100873.06
2023-04-02T07:36:45.864Z,100880.84
2023-04-02T07:39:13.677Z,100884.31
2023-04-02T07:41:56.965Z,100886.91
2023-04-02T07:44:24.781Z,100896.44
2023-04-02T07:46:52.666Z,100894.69
2023-04-02T07:49:20.593Z,100908.59
2023-04-02T07:51:48.636Z,100918.09
2023-04-02T07:54:16.502Z,100917.25
2023-04-02T07:56:44.258Z,100925.91
2023-04-02T07:59:13.392Z,100931.13
2023-04-02T08:01:42.881Z,100932.84
2023-04-02T08:04:18.841Z,100941.50
2023-04-02T08:06:47.119Z,100946.66
2023-04-02T08:09:14.977Z,100953.63
2023-04-02T08:11:42.813Z,100949.28
2023-04-02T08:14:10.876Z,100958.84
2023-04-02T08:16:48.277Z,100964.03
2023-04-02T08:19:16.511Z,100966.63
2023-04-02T08:21:45.582Z,100976.19
2023-04-02T08:24:13.419Z,100981.34
2023-04-02T08:26:41.941Z,100999.56
2023-04-02T08:29:10.405Z,101004.78
2023-04-02T08:31:38.319Z,101001.28
2023-04-02T08:34:07.783Z,101010.81
2023-04-02T08:36:38.684Z,101022.97
2023-04-02T08:39:10.993Z,101014.28
2023-04-02T08:41:44.966Z,101015.16
2023-04-02T08:44:26.007Z,101034.19
2023-04-02T08:46:58.859Z,101037.66
2023-04-02T08:49:32.218Z,101044.59
2023-04-02T08:52:00.755Z,101050.63
2023-04-02T08:54:31.579Z,101055.88
2023-04-02T08:57:05.628Z,101060.25
2023-04-02T08:59:36.675Z,101063.75
2023-04-02T09:02:25.935Z,101060.28
2023-04-02T09:04:55.945Z,101079.31
2023-04-02T09:07:24.000Z,101082.81
2023-04-02T09:09:52.034Z,101082.81
2023-04-02T09:12:21.238Z,101094.97
2023-04-02T09:15:01.925Z,101094.06
2023-04-02T09:17:34.738Z,101096.69
2023-04-02T09:20:17.886Z,101100.19
2023-04-02T09:22:48.400Z,101106.16
2023-04-02T09:25:19.601Z,101111.34
2023-04-02T09:27:49.140Z,101107.91
2023-04-02T09:30:29.551Z,101120.97
2023-04-02T09:33:00.763Z,101126.09
2023-04-02T09:35:32.420Z,101126.91
2023-04-02T09:38:19.406Z,101131.31
2023-04-02T09:40:50.951Z,101144.31
2023-04-02T09:43:21.149Z,101145.22
2023-04-02T09:45:58.494Z,101154.84
2023-04-02T09:48:30.232Z,101155.66
2023-04-02T09:51:14.191Z,101171.28
2023-04-02T09:53:45.775Z,101179.91
2023-04-02T09:56:16.172Z,101174.75
2023-04-02T09:58:45.173Z,101186.03
2023-04-02T10:01:29.185Z,101179.13
2023-04-02T10:03:59.050Z,101185.16
2023-04-02T10:06:29.567Z,101193.84
2023-04-02T10:08:57.846Z,101200.81
2023-04-02T10:11:36.428Z,101205.16
2023-04-02T10:14:19.480Z,101210.28
2023-04-02T10:16:51.542Z,101218.09
2023-04-02T10:19:27.695Z,101225.78
2023-04-02T10:21:59.213Z,101233.50
2023-04-02T10:24:29.522Z,101231.78
2023-04-02T10:27:07.057Z,101242.09
2023-04-02T10:29:55.779Z,101247.38
2023-04-02T10:32:27.425Z,101250.09
2023-04-02T10:35:04.662Z,101254.41
2023-04-02T10:38:01.144Z,101258.84
2023-04-02T10:40:35.574Z,101257.06
2023-04-02T10:43:35.226Z,101260.59
2023-04-02T10:46:09.327Z,101271.06
2023-04-02T10:48:45.454Z,101270.25
2023-04-02T10:51:30.364Z,101281.44
2023-04-02T10:54:12.132Z,101280.63
2023-04-02T10:56:48.316Z,101278.88
2023-04-02T10:59:22.373Z,101292.69
2023-04-02T11:01:53.666Z,101287.59
2023-04-02T11:04:25.520Z,101296.16
2023-04-02T11:07:07.129Z,101300.63
2023-04-02T11:09:44.468Z,101308.44
2023-04-02T11:12:22.001Z,101311.09
2023-04-02T11:14:51.968Z,101329.34
2023-04-02T11:17:21.440Z,101324.16
2023-04-02T11:19:49.354Z,101328.50
2023-04-02T11:22:19.998Z,101330.28
2023-04-02T11:24:51.054Z,101335.53
2023-04-02T11:27:27.349Z,101332.13
2023-04-02T11:30:06.170Z,101343.41
2023-04-02T11:32:39.714Z,101344.19
2023-04-02T11:35:27.612Z,101347.66
2023-04-02T11:37:58.476Z,101344.19
2023-04-02T11:40:50.152Z,101357.16
2023-04-02T11:44:01.444Z,101366.63
2023-04-02T11:46:47.470Z,101362.22
2023-04-02T11:49:39.622Z,101381.38
2023-04-02T11:52:24.451Z,101377.91
2023-04-02T11:55:05.690Z,101376.97
2023-04-02T11:57:46.718Z,101380.47
2023-04-02T12:00:29.407Z,101375.34
2023-04-02T12:03:21.184Z,101375.41
2023-04-02T12:05:58.544Z,101382.31
2023-04-02T12:08:50.705Z,101384.09
2023-04-02T12:11:33.632Z,101391.94
2023-04-02T12:14:07.775Z,101394.53
2023-04-02T12:16:36.484Z,101392.88
2023-04-02T12:19:10.181Z,101399.84
2023-04-02T12:21:39.019Z,101409.41
2023-04-02T12:24:08.080Z,101413.72
2023-04-02T12:26:38.327Z,101416.31
2023-04-02T12:29:18.500Z,101411.94
2023-04-02T12:31:48.706Z,101429.31
2023-04-02T12:34:18.942Z,101430.19
2023-04-02T12:36:55.009Z,101438.03
2023-04-02T12:39:24.668Z,101438.81
2023-04-02T12:41:54.796Z,101436.19
2023-04-02T12:44:26.235Z,101438.81
2023-04-02T12:46:54.799Z,101447.59
2023-04-02T12:49:31.568Z,101441.63
2023-04-02T12:52:02.646Z,101439.03
2023-04-02T12:54:36.401Z,101438.13
2023-04-02T12:57:31.567Z,101448.56
2023-04-02T13:00:05.452Z,101454.63
2023-04-02T13:02:43.912Z,101456.28
2023-04-02T13:11:18.261Z,101468.38
2023-04-02T13:13:48.484Z,101470.03
2023-04-02T13:16:33.628Z,101467.44
2023-04-02T13:19:22.805Z,101483.16
2023-04-02T13:21:52.535Z,101476.88
2023-04-02T13:24:22.046Z,101482.13
2023-04-02T13:26:50.780Z,101487.31
2023-04-02T13:29:25.916Z,101478.78
2023-04-02T13:31:58.357Z,101476.28
2023-04-02T13:34:26.685Z,101482.28
2023-04-02T13:36:55.065Z,101489.16
2023-04-02T13:39:22.880Z,101493.47
2023-04-02T13:41:53.032Z,101497.84
2023-04-02T13:44:24.231Z,101502.34
2023-04-02T13:46:52.893Z,101503.16
2023-04-02T13:49:22.767Z,101499.72
2023-04-02T13:51:51.767Z,101505.91
2023-04-02T13:54:23.952Z,101518.03
2023-04-02T13:56:51.875Z,101513.63
2023-04-02T13:59:23.368Z,101517.09
2023-04-02T14:01:54.845Z,101518.66
2023-04-02T14:04:28.150Z,101528.19
2023-04-02T14:07:30.579Z,101527.28
2023-04-02T14:10:05.352Z,101526.41
2023-04-02T14:12:59.854Z,101537.84
2023-04-02T14:15:38.495Z,101530.94
2023-04-02T14:18:25.850Z,101538.75
2023-04-02T14:21:06.848Z,101535.25
2023-04-02T14:23:49.610Z,101543.19
2023-04-02T14:26:26.249Z,101551.84
2023-04-02T14:29:01.496Z,101552.63
2023-04-02T14:31:35.619Z,101560.38
2023-04-02T14:34:14.864Z,101564.72
2023-04-02T14:36:56.314Z,101561.91
2023-04-02T14:39:35.948Z,101574.84
2023-04-02T14:42:13.741Z,101577.41
2023-04-02T14:44:47.516Z,101576.59
2023-04-02T14:47:22.296Z,101574.03
2023-04-02T14:49:57.003Z,101583.69
2023-04-02T14:52:29.657Z,101581.91
2023-04-02T14:55:03.333Z,101587.97
2023-04-02T14:57:34.239Z,101577.53
2023-04-02T15:00:06.458Z,101578.44
2023-04-02T15:02:40.939Z,101584.53
2023-04-02T15:05:17.604Z,101598.22
2023-04-02T15:07:53.105Z,101597.16
2023-04-02T15:10:26.241Z,101593.72
2023-04-02T15:12:57.931Z,101601.66
2023-04-02T15:15:40.319Z,101597.34
2023-04-02T15:18:12.573Z,101596.31
2023-04-02T15:20:49.263Z,101610.22
2023-04-02T15:23:29.846Z,101603.28
2023-04-02T15:26:08.390Z,101610.16
2023-04-02T15:28:42.204Z,101607.53
2023-04-02T15:31:15.281Z,101610.22
2023-04-02T15:33:45.914Z,101615.41
2023-04-02T15:36:31.429Z,101614.28
2023-04-02T15:39:11.093Z,101616.91
2023-04-02T15:41:42.861Z,101612.63
2023-04-02T15:44:16.184Z,101623.88
2023-04-02T15:46:57.969Z,101635.13
2023-04-02T15:49:42.590Z,101637.66
2023-04-02T15:52:16.397Z,101634.06
2023-04-02T15:55:11.391Z,101650.66
2023-04-02T15:57:54.646Z,101653.38
2023-04-02T16:00:27.838Z,101657.69
2023-04-02T16:03:27.569Z,101662.88
2023-04-02T16:06:28.943Z,101667.03
2023-04-02T16:09:23.941Z,101681.81
2023-04-02T16:11:59.285Z,101682.72
2023-04-02T16:14:28.928Z,101686.09
2023-04-02T16:17:05.924Z,101692.25
2023-04-02T16:19:45.559Z,101704.47
2023-04-02T16:22:18.525Z,101700.03
2023-04-02T16:24:49.990Z,101699.69
2023-04-02T16:27:30.062Z,101699.03
2023-04-02T16:30:09.534Z,101714.47
2023-04-02T16:32:51.912Z,101717.72
2023-04-02T16:35:42.331Z,101717.78
2023-04-02T16:38:23.243Z,101724.47
2023-04-02T16:41:07.562Z,101727.28
2023-04-02T16:43:42.188Z,101729.94
2023-04-02T16:46:22.663Z,101740.28
2023-04-02T16:49:08.515Z,101741.84
2023-04-02T16:51:46.389Z,101750.31
2023-04-02T16:54:21.213Z,101754.72
2023-04-02T16:57:04.514Z,101752.84
2023-04-02T16:59:39.907Z,101767.56
2023-04-02T17:02:26.634Z,101762.28
2023-04-02T17:05:06.120Z,101777.66
2023-04-02T17:07:44.720Z,101787.13
2023-04-02T17:10:25.637Z,101777.72
2023-04-02T17:13:02.966Z,101794.16
2023-04-02T17:15:37.289Z,101795.75
2023-04-02T17:18:14.641Z,101801.56
2023-04-02T17:20:42.887Z,101812.06
2023-04-02T17:23:14.640Z,101811.03
2023-04-02T17:25:49.258Z,101826.59
2023-04-02T17:28:25.447Z,101826.47
2023-04-02T17:30:57.595Z,101836.97
2023-04-02T17:33:27.284Z,101832.53
2023-04-02T17:36:15.590Z,101837.88
2023-04-02T17:38:52.129Z,101855.81
2023-04-02T17:41:24.390Z,101858.25
2023-04-02T17:43:59.485Z,101855.53
2023-04-02T17:46:38.618Z,101861.56
2023-04-02T17:49:16.956Z,101873.75
2023-04-02T17:51:50.428Z,101869.22
2023-04-02T17:54:31.971Z,101871.81
2023-04-02T17:57:17.557Z,101875.22
2023-04-02T17:59:56.622Z,101879.47
2023-04-02T18:02:40.014Z,101888.84
2023-04-02T18:05:18.089Z,101898.31
2023-04-02T18:07:53.384Z,101900.94
2023-04-02T18:10:28.483Z,101906.06
2023-04-02T18:12:58.462Z,101912.19
2023-04-02T18:15:55.551Z,101919.16
2023-04-02T18:18:42.144Z,101921.94
2023-04-02T18:21:22.081Z,101926.31
2023-04-02T18:24:03.260Z,101929.84
2023-04-02T18:26:38.389Z,101931.50
2023-04-02T18:29:18.994Z,101938.56
2023-04-02T18:31:53.245Z,101949.81
2023-04-02T18:34:44.835Z,101945.47
2023-04-02T18:37:24.055Z,101945.63
2023-04-02T18:40:12.932Z,101962.19
2023-04-02T18:42:50.512Z,101954.94
2023-04-02T18:45:23.015Z,101954.16
2023-04-02T18:48:00.748Z,101959.53
2023-04-02T18:50:35.023Z,101958.72
2023-04-02T18:53:11.818Z,101965.38
2023-04-02T18:55:44.273Z,101966.94
2023-04-02T18:58:16.514Z,101977.25
2023-04-02T19:00:46.450Z,101979.84
2023-04-02T19:03:21.209Z,101984.06
2023-04-02T19:05:57.502Z,101984.84
2023-04-02T19:08:30.192Z,101990.84
2023-04-02T19:11:01.663Z,101992.63
2023-04-02T19:13:29.822Z,102001.44
2023-04-02T19:16:18.853Z,102005.78
2023-04-02T19:18:56.720Z,102006.72
2023-04-02T19:21:35.610Z,102014.34
2023-04-02T19:24:17.624Z,102011.06
2023-04-02T19:26:50.334Z,102016.88
2023-04-02T19:29:30.252Z,102016.84
2023-04-02T19:32:06.765Z,102019.47
2023-04-02T19:34:41.221Z,102024.56
2023-04-02T19:37:17.952Z,102021.22
2023-04-02T19:40:00.865Z,102032.34
2023-04-02T19:42:44.251Z,102028.81
2023-04-02T19:45:26.387Z,102027.78
2023-04-02T19:47:54.670Z,102035.53
2023-04-02T19:50:22.841Z,102044.97
2023-04-02T19:52:52.172Z,102041.56
2023-04-02T19:55:20.239Z,102049.34
2023-04-02T19:57:48.326Z,102043.19
2023-04-02T20:00:17.108Z,102052.69
2023-04-02T20:02:45.482Z,102061.31
2023-04-02T20:05:13.936Z,102069.88
2023-04-02T20:07:42.833Z,102055.13
2023-04-02T20:10:13.392Z,102061.13
2023-04-02T20:12:41.492Z,102064.56
2023-04-02T20:15:10.540Z,102071.34
2023-04-02T20:17:38.469Z,102074.03
2023-04-02T20:20:07.717Z,102073.13
2023-04-02T20:22:35.611Z,102068.69
2023-04-02T20:25:03.508Z,102074.81
2023-04-02T20:27:32.859Z,102077.34
2023-04-02T20:30:00.762Z,102077.25
2023-04-02T20:32:28.721Z,102089.41
2023-04-02T20:34:56.653Z,102088.66
2023-04-02T20:37:24.650Z,102092.25
2023-04-02T20:39:52.624Z,102093.00
2023-04-02T20:42:20.604Z,102099.78
2023-04-02T20:44:50.006Z,102088.69
2023-04-02T20:47:18.276Z,102113.50
2023-04-02T20:49:46.442Z,102108.38
2023-04-02T20:52:14.435Z,102110.88
2023-04-02T20:54:42.220Z,102111.81
2023-04-02T20:57:10.265Z,102114.16
2023-04-02T20:59:38.184Z,102106.16
2023-04-02T21:02:07.937Z,102113.19
2023-04-02T21:04:35.821Z,102113.03
2023-04-02T21:07:03.594Z,102117.38
2023-04-02T21:09:32.065Z,102123.47
2023-04-02T21:11:59.926Z,102122.50
2023-04-02T21:14:27.784Z,102126.00
2023-04-02T21:16:56.589Z,102126.53
2023-04-02T21:19:27.045Z,102116.00
2023-04-02T21:21:55.632Z,102118.34
2023-04-02T21:24:23.445Z,102125.31
2023-04-02T21:26:51.484Z,102126.09
2023-04-02T21:29:19.472Z,102135.44
2023-04-02T21:31:47.442Z,102122.44
2023-04-02T21:34:17.352Z,102127.53
2023-04-02T21:36:48.719Z,102125.69
2023-04-02T21:39:19.037Z,102121.16
2023-04-02T21:41:50.001Z,102130.53
2023-04-02T21:44:19.805Z,102128.66
2023-04-02T21:46:49.357Z,102127.59
2023-04-02T21:49:21.930Z,102121.31
2023-04-02T21:51:52.404Z,102131.34
2023-04-02T21:54:20.510Z,102129.34
2023-04-02T21:56:48.792Z,102129.16
2023-04-02T21:59:18.421Z,102130.75
2023-04-02T22:01:49.319Z,102138.25
2023-04-02T22:04:19.865Z,102137.97
2023-04-02T22:06:48.355Z,102136.88
2023-04-02T22:09:19.160Z,102145.34
2023-04-02T22:11:49.594Z,102143.50
2023-04-02T22:14:18.152Z,102140.03
2023-04-02T22:16:46.100Z,102142.44
2023-04-02T22:19:16.279Z,102141.47
2023-04-02T22:21:45.029Z,102147.31
2023-04-02T22:24:16.017Z,102145.56
2023-04-02T22:26:46.239Z,102142.84
2023-04-02T22:29:14.558Z,102142.72
2023-04-02T22:31:42.414Z,102149.56
2023-04-02T22:34:10.667Z,102151.16
2023-04-02T22:36:38.717Z,102151.91
2023-04-02T22:39:10.437Z,102145.97
2023-04-02T22:41:38.517Z,102159.94
2023-04-02T22:44:07.873Z,102159.06
2023-04-02T22:46:35.994Z,102159.94
2023-04-02T22:49:04.523Z,102166.81
2023-04-02T22:51:32.440Z,102162.41
2023-04-02T22:54:00.330Z,102168.25
2023-04-02T22:56:32.031Z,102175.25
2023-04-02T22:59:00.778Z,102168.41
2023-04-02T23:01:32.911Z,102174.47
2023-04-02T23:04:01.188Z,102181.50
2023-04-02T23:06:29.907Z,102174.75
2023-04-02T23:08:57.892Z,102184.22
2023-04-02T23:11:27.288Z,102185.22
2023-04-02T23:13:57.456Z,102187.19
2023-04-02T23:16:27.710Z,102185.53
2023-04-02T23:18:57.657Z,102191.66
2023-04-02T23:21:26.169Z,102183.25
2023-04-02T23:23:55.365Z,102183.47
2023-04-02T23:26:26.004Z,102186.91
2023-04-02T23:28:53.883Z,102186.94
2023-04-02T23:31:23.753Z,102193.97
2023-04-02T23:33:52.184Z,102187.09
2023-04-02T23:36:23.439Z,102187.09
2023-04-02T23:38:55.102Z,102191.50
2023-04-02T23:41:26.524Z,102193.19
2023-04-02T23:43:55.915Z,102196.66
2023-04-02T23:46:24.797Z,102183.81
2023-04-02T23:48:53.068Z,102183.00
2023-04-02T23:51:22.568Z,102186.50
2023-04-02T23:53:51.087Z,102186.59
2023-04-02T23:56:19.072Z,102197.88
2023-04-02T23:58:47.016Z,102190.97
